sensor_id;sensor_type;location;lat;lon;timestamp;temperature;humidity
16867;DHT22;8550;52.596;13.320;2024-03-17T00:03:13;4.30;99.90
16867;DHT22;8550;52.596;13.320;2024-03-17T00:08:14;4.30;99.90
16867;DHT22;8550;52.596;13.320;2024-03-17T00:13:15;4.30;99.90
16867;DHT22;8550;52.596;13.320;2024-03-17T00:18:16;4.30;99.90
16867;DHT22;8550;52.596;13.320;2024-03-17T00:23:17;4.20;99.90
16867;DHT22;8550;52.596;13.320;2024-03-17T00:28:17;4.20;99.90
16867;DHT22;8550;52.596;13.320;2024-03-17T00:33:18;4.30;99.90
16867;DHT22;8550;52.596;13.320;2024-03-17T00:38:19;4.30;99.90
16867;DHT22;8550;52.596;13.320;2024-03-17T00:43:20;4.20;99.90
16867;DHT22;8550;52.596;13.320;2024-03-17T00:48:20;4.20;99.90
16867;DHT22;8550;52.596;13.320;2024-03-17T00:53:21;4.30;99.90
16867;DHT22;8550;52.596;13.320;2024-03-17T00:58:22;4.20;99.90
16867;DHT22;8550;52.596;13.320;2024-03-17T01:03:22;4.10;99.90
16867;DHT22;8550;52.596;13.320;2024-03-17T01:08:23;4.10;99.90
16867;DHT22;8550;52.596;13.320;2024-03-17T01:13:24;4.00;99.90
16867;DHT22;8550;52.596;13.320;2024-03-17T01:18:25;4.10;99.90
16867;DHT22;8550;52.596;13.320;2024-03-17T01:23:26;4.00;99.90
16867;DHT22;8550;52.596;13.320;2024-03-17T01:28:26;4.10;99.90
16867;DHT22;8550;52.596;13.320;2024-03-17T01:33:27;4.10;99.90
16867;DHT22;8550;52.596;13.320;2024-03-17T01:38:28;4.00;99.90
16867;DHT22;8550;52.596;13.320;2024-03-17T01:43:28;4.00;99.90
16867;DHT22;8550;52.596;13.320;2024-03-17T01:48:29;4.00;99.90
16867;DHT22;8550;52.596;13.320;2024-03-17T01:53:30;4.00;99.90
16867;DHT22;8550;52.596;13.320;2024-03-17T01:58:31;4.00;99.90
16867;DHT22;8550;52.596;13.320;2024-03-17T02:03:32;4.10;99.90
16867;DHT22;8550;52.596;13.320;2024-03-17T02:08:52;4.10;99.90
16867;DHT22;8550;52.596;13.320;2024-03-17T02:13:55;4.00;99.90
16867;DHT22;8550;52.596;13.320;2024-03-17T02:18:56;4.00;99.90
16867;DHT22;8550;52.596;13.320;2024-03-17T02:23:57;3.80;99.90
16867;DHT22;8550;52.596;13.320;2024-03-17T02:28:58;3.80;99.90
16867;DHT22;8550;52.596;13.320;2024-03-17T02:33:59;3.80;99.90
16867;DHT22;8550;52.596;13.320;2024-03-17T02:39:00;3.80;99.90
16867;DHT22;8550;52.596;13.320;2024-03-17T02:44:19;3.70;99.90
16867;DHT22;8550;52.596;13.320;2024-03-17T02:49:20;3.60;99.90
16867;DHT22;8550;52.596;13.320;2024-03-17T02:54:22;3.60;99.90
16867;DHT22;8550;52.596;13.320;2024-03-17T02:59:23;3.50;99.90
16867;DHT22;8550;52.596;13.320;2024-03-17T03:04:24;3.50;99.90
16867;DHT22;8550;52.596;13.320;2024-03-17T03:09:25;3.50;99.90
16867;DHT22;8550;52.596;13.320;2024-03-17T03:14:31;3.40;99.90
16867;DHT22;8550;52.596;13.320;2024-03-17T03:25:16;3.20;99.90
16867;DHT22;8550;52.596;13.320;2024-03-17T03:30:41;3.20;99.90
16867;DHT22;8550;52.596;13.320;2024-03-17T04:00:49;3.10;99.90
16867;DHT22;8550;52.596;13.320;2024-03-17T04:25:06;2.80;99.90
16867;DHT22;8550;52.596;13.320;2024-03-17T05:11:26;2.60;99.90
16867;DHT22;8550;52.596;13.320;2024-03-17T05:16:30;2.30;99.90
16867;DHT22;8550;52.596;13.320;2024-03-17T05:21:31;2.50;99.90
16867;DHT22;8550;52.596;13.320;2024-03-17T05:26:31;2.40;99.90
16867;DHT22;8550;52.596;13.320;2024-03-17T05:31:32;2.30;99.90
16867;DHT22;8550;52.596;13.320;2024-03-17T05:36:33;2.40;99.90
16867;DHT22;8550;52.596;13.320;2024-03-17T05:41:34;2.30;99.90
16867;DHT22;8550;52.596;13.320;2024-03-17T05:46:34;2.30;99.90
16867;DHT22;8550;52.596;13.320;2024-03-17T05:51:35;2.40;99.90
16867;DHT22;8550;52.596;13.320;2024-03-17T05:56:36;2.40;99.90
16867;DHT22;8550;52.596;13.320;2024-03-17T06:01:37;2.50;99.90
16867;DHT22;8550;52.596;13.320;2024-03-17T06:06:37;2.60;99.90
16867;DHT22;8550;52.596;13.320;2024-03-17T06:11:38;2.70;99.90
16867;DHT22;8550;52.596;13.320;2024-03-17T06:16:39;2.80;99.90
16867;DHT22;8550;52.596;13.320;2024-03-17T06:21:40;2.90;99.90
16867;DHT22;8550;52.596;13.320;2024-03-17T06:26:41;3.10;99.90
16867;DHT22;8550;52.596;13.320;2024-03-17T06:31:42;3.20;99.90
16867;DHT22;8550;52.596;13.320;2024-03-17T06:36:42;3.30;99.90
16867;DHT22;8550;52.596;13.320;2024-03-17T06:41:43;3.40;99.90
16867;DHT22;8550;52.596;13.320;2024-03-17T06:46:45;3.40;99.90
16867;DHT22;8550;52.596;13.320;2024-03-17T06:51:47;3.60;99.90
16867;DHT22;8550;52.596;13.320;2024-03-17T06:56:48;3.80;99.90
16867;DHT22;8550;52.596;13.320;2024-03-17T07:01:49;4.20;99.90
16867;DHT22;8550;52.596;13.320;2024-03-17T07:06:50;4.30;99.90
16867;DHT22;8550;52.596;13.320;2024-03-17T07:11:51;4.30;99.90
16867;DHT22;8550;52.596;13.320;2024-03-17T07:16:53;4.40;99.90
16867;DHT22;8550;52.596;13.320;2024-03-17T07:21:54;4.70;99.90
16867;DHT22;8550;52.596;13.320;2024-03-17T07:26:55;4.90;99.90
16867;DHT22;8550;52.596;13.320;2024-03-17T07:31:56;5.10;99.90
16867;DHT22;8550;52.596;13.320;2024-03-17T07:36:56;5.10;99.90
16867;DHT22;8550;52.596;13.320;2024-03-17T07:41:58;5.20;99.90
16867;DHT22;8550;52.596;13.320;2024-03-17T07:47:03;5.30;99.90
16867;DHT22;8550;52.596;13.320;2024-03-17T07:52:06;5.30;99.90
16867;DHT22;8550;52.596;13.320;2024-03-17T07:57:07;5.40;99.90
16867;DHT22;8550;52.596;13.320;2024-03-17T08:02:09;5.80;99.90
16867;DHT22;8550;52.596;13.320;2024-03-17T08:07:10;6.00;99.90
16867;DHT22;8550;52.596;13.320;2024-03-17T08:12:11;6.10;99.90
16867;DHT22;8550;52.596;13.320;2024-03-17T08:17:12;6.20;99.90
16867;DHT22;8550;52.596;13.320;2024-03-17T08:22:14;6.60;99.90
16867;DHT22;8550;52.596;13.320;2024-03-17T08:27:18;6.70;99.90
16867;DHT22;8550;52.596;13.320;2024-03-17T08:32:18;6.70;99.90
16867;DHT22;8550;52.596;13.320;2024-03-17T08:37:19;6.40;99.90
16867;DHT22;8550;52.596;13.320;2024-03-17T08:42:20;6.50;99.90
16867;DHT22;8550;52.596;13.320;2024-03-17T08:47:21;6.60;99.90
16867;DHT22;8550;52.596;13.320;2024-03-17T08:52:22;6.70;99.90
16867;DHT22;8550;52.596;13.320;2024-03-17T08:57:23;7.10;99.90
16867;DHT22;8550;52.596;13.320;2024-03-17T09:02:23;7.40;99.90
16867;DHT22;8550;52.596;13.320;2024-03-17T09:07:24;7.20;99.90
16867;DHT22;8550;52.596;13.320;2024-03-17T09:12:25;7.20;99.90
16867;DHT22;8550;52.596;13.320;2024-03-17T09:17:26;7.30;99.90
16867;DHT22;8550;52.596;13.320;2024-03-17T09:22:26;7.50;99.90
16867;DHT22;8550;52.596;13.320;2024-03-17T09:27:27;7.50;99.90
16867;DHT22;8550;52.596;13.320;2024-03-17T09:32:27;7.60;99.90
16867;DHT22;8550;52.596;13.320;2024-03-17T09:37:28;7.70;99.90
16867;DHT22;8550;52.596;13.320;2024-03-17T09:42:31;7.80;99.90
16867;DHT22;8550;52.596;13.320;2024-03-17T09:47:33;8.20;99.90
16867;DHT22;8550;52.596;13.320;2024-03-17T09:52:34;8.30;99.90
16867;DHT22;8550;52.596;13.320;2024-03-17T09:57:38;8.60;99.90
16867;DHT22;8550;52.596;13.320;2024-03-17T10:02:44;8.30;99.90
16867;DHT22;8550;52.596;13.320;2024-03-17T10:07:45;8.40;99.90
16867;DHT22;8550;52.596;13.320;2024-03-17T10:12:50;8.60;99.90
16867;DHT22;8550;52.596;13.320;2024-03-17T10:17:53;8.70;99.90
16867;DHT22;8550;52.596;13.320;2024-03-17T10:23:05;8.90;99.90
16867;DHT22;8550;52.596;13.320;2024-03-17T10:28:13;8.70;99.90
16867;DHT22;8550;52.596;13.320;2024-03-17T10:33:24;8.90;99.90
16867;DHT22;8550;52.596;13.320;2024-03-17T10:38:26;9.60;99.90
16867;DHT22;8550;52.596;13.320;2024-03-17T10:43:27;9.30;98.70
16867;DHT22;8550;52.596;13.320;2024-03-17T10:48:31;9.00;99.20
16867;DHT22;8550;52.596;13.320;2024-03-17T10:53:35;9.50;98.10
16867;DHT22;8550;52.596;13.320;2024-03-17T10:58:38;11.30;95.20
16867;DHT22;8550;52.596;13.320;2024-03-17T11:03:47;11.80;92.00
16867;DHT22;8550;52.596;13.320;2024-03-17T11:08:48;10.20;93.90
16867;DHT22;8550;52.596;13.320;2024-03-17T11:13:49;8.90;96.00
16867;DHT22;8550;52.596;13.320;2024-03-17T11:18:50;10.40;95.20
16867;DHT22;8550;52.596;13.320;2024-03-17T11:23:58;13.40;87.90
16867;DHT22;8550;52.596;13.320;2024-03-17T11:29:00;14.50;78.80
16867;DHT22;8550;52.596;13.320;2024-03-17T11:34:03;13.90;77.50
16867;DHT22;8550;52.596;13.320;2024-03-17T11:49:40;14.80;73.20
16867;DHT22;8550;52.596;13.320;2024-03-17T11:54:45;13.10;72.90
16867;DHT22;8550;52.596;13.320;2024-03-17T11:59:46;13.50;75.20
16867;DHT22;8550;52.596;13.320;2024-03-17T12:04:48;16.00;67.20
16867;DHT22;8550;52.596;13.320;2024-03-17T12:09:52;17.00;62.60
16867;DHT22;8550;52.596;13.320;2024-03-17T12:14:54;16.60;60.00
16867;DHT22;8550;52.596;13.320;2024-03-17T12:19:55;15.20;62.50
16867;DHT22;8550;52.596;13.320;2024-03-17T12:24:59;14.50;63.60
16867;DHT22;8550;52.596;13.320;2024-03-17T12:30:00;13.90;65.60
16867;DHT22;8550;52.596;13.320;2024-03-17T12:35:00;13.50;66.90
16867;DHT22;8550;52.596;13.320;2024-03-17T12:40:03;12.20;69.40
16867;DHT22;8550;52.596;13.320;2024-03-17T12:45:09;11.40;73.30
16867;DHT22;8550;52.596;13.320;2024-03-17T12:50:12;11.90;74.40
16867;DHT22;8550;52.596;13.320;2024-03-17T12:55:18;11.00;76.20
16867;DHT22;8550;52.596;13.320;2024-03-17T13:00:39;10.60;77.00
16867;DHT22;8550;52.596;13.320;2024-03-17T13:05:47;11.10;76.20
16867;DHT22;8550;52.596;13.320;2024-03-17T13:10:47;10.90;76.00
16867;DHT22;8550;52.596;13.320;2024-03-17T13:15:48;11.20;76.70
16867;DHT22;8550;52.596;13.320;2024-03-17T13:20:49;11.20;75.30
16867;DHT22;8550;52.596;13.320;2024-03-17T13:25:58;11.10;77.90
16867;DHT22;8550;52.596;13.320;2024-03-17T13:30:59;12.10;75.90
16867;DHT22;8550;52.596;13.320;2024-03-17T13:36:00;12.60;70.80
16867;DHT22;8550;52.596;13.320;2024-03-17T13:41:00;12.30;71.80
16867;DHT22;8550;52.596;13.320;2024-03-17T13:46:04;11.60;75.00
16867;DHT22;8550;52.596;13.320;2024-03-17T13:51:05;12.90;71.80
16867;DHT22;8550;52.596;13.320;2024-03-17T13:56:06;14.50;68.10
16867;DHT22;8550;52.596;13.320;2024-03-17T14:01:07;16.50;61.70
16867;DHT22;8550;52.596;13.320;2024-03-17T14:06:09;17.70;57.50
16867;DHT22;8550;52.596;13.320;2024-03-17T14:11:09;18.70;52.50
16867;DHT22;8550;52.596;13.320;2024-03-17T14:16:10;18.00;53.80
16867;DHT22;8550;52.596;13.320;2024-03-17T14:21:11;16.90;52.40
16867;DHT22;8550;52.596;13.320;2024-03-17T14:26:12;17.20;54.20
16867;DHT22;8550;52.596;13.320;2024-03-17T14:31:13;18.30;54.70
16867;DHT22;8550;52.596;13.320;2024-03-17T14:36:13;20.10;51.50
16867;DHT22;8550;52.596;13.320;2024-03-17T14:41:14;19.10;49.60
16867;DHT22;8550;52.596;13.320;2024-03-17T14:46:15;18.40;53.60
16867;DHT22;8550;52.596;13.320;2024-03-17T14:51:18;18.10;52.10
16867;DHT22;8550;52.596;13.320;2024-03-17T14:56:19;16.90;57.30
16867;DHT22;8550;52.596;13.320;2024-03-17T15:01:20;16.80;54.60
16867;DHT22;8550;52.596;13.320;2024-03-17T15:06:20;16.30;53.40
16867;DHT22;8550;52.596;13.320;2024-03-17T15:11:21;15.20;55.80
16867;DHT22;8550;52.596;13.320;2024-03-17T15:16:21;16.30;54.50
16867;DHT22;8550;52.596;13.320;2024-03-17T15:21:23;16.80;51.80
16867;DHT22;8550;52.596;13.320;2024-03-17T15:26:24;15.80;54.60
16867;DHT22;8550;52.596;13.320;2024-03-17T15:31:24;13.30;61.40
16867;DHT22;8550;52.596;13.320;2024-03-17T15:36:25;13.60;60.90
16867;DHT22;8550;52.596;13.320;2024-03-17T15:41:26;14.10;61.10
16867;DHT22;8550;52.596;13.320;2024-03-17T15:46:26;14.60;58.80
16867;DHT22;8550;52.596;13.320;2024-03-17T15:51:27;13.80;59.80
16867;DHT22;8550;52.596;13.320;2024-03-17T15:56:28;13.50;61.70
16867;DHT22;8550;52.596;13.320;2024-03-17T16:01:28;13.40;60.70
16867;DHT22;8550;52.596;13.320;2024-03-17T16:06:29;12.80;63.50
16867;DHT22;8550;52.596;13.320;2024-03-17T16:11:30;12.50;65.70
16867;DHT22;8550;52.596;13.320;2024-03-17T16:16:31;12.20;65.50
16867;DHT22;8550;52.596;13.320;2024-03-17T16:21:32;11.40;67.00
16867;DHT22;8550;52.596;13.320;2024-03-17T16:26:32;11.20;68.90
16867;DHT22;8550;52.596;13.320;2024-03-17T16:31:38;10.70;72.20
16867;DHT22;8550;52.596;13.320;2024-03-17T16:36:39;10.10;76.90
16867;DHT22;8550;52.596;13.320;2024-03-17T16:41:41;9.90;76.80
16867;DHT22;8550;52.596;13.320;2024-03-17T16:51:46;9.30;80.70
16867;DHT22;8550;52.596;13.320;2024-03-17T16:56:47;9.00;82.40
16867;DHT22;8550;52.596;13.320;2024-03-17T17:01:48;8.70;87.10
16867;DHT22;8550;52.596;13.320;2024-03-17T17:06:50;8.40;89.50
16867;DHT22;8550;52.596;13.320;2024-03-17T17:11:50;8.10;91.60
16867;DHT22;8550;52.596;13.320;2024-03-17T17:16:53;7.80;93.60
16867;DHT22;8550;52.596;13.320;2024-03-17T17:21:54;7.50;95.20
16867;DHT22;8550;52.596;13.320;2024-03-17T17:26:55;7.30;95.80
16867;DHT22;8550;52.596;13.320;2024-03-17T17:31:56;7.20;97.10
16867;DHT22;8550;52.596;13.320;2024-03-17T17:36:56;7.10;97.00
16867;DHT22;8550;52.596;13.320;2024-03-17T17:41:57;6.90;97.40
16867;DHT22;8550;52.596;13.320;2024-03-17T17:47:00;6.70;98.60
16867;DHT22;8550;52.596;13.320;2024-03-17T17:52:01;6.70;99.90
16867;DHT22;8550;52.596;13.320;2024-03-17T17:57:03;6.50;99.90
16867;DHT22;8550;52.596;13.320;2024-03-17T18:02:06;6.30;99.90
16867;DHT22;8550;52.596;13.320;2024-03-17T18:07:07;6.30;99.90
16867;DHT22;8550;52.596;13.320;2024-03-17T18:12:07;6.10;99.90
16867;DHT22;8550;52.596;13.320;2024-03-17T18:17:08;6.00;99.90
16867;DHT22;8550;52.596;13.320;2024-03-17T18:22:11;5.80;99.90
16867;DHT22;8550;52.596;13.320;2024-03-17T18:27:12;5.60;99.90
16867;DHT22;8550;52.596;13.320;2024-03-17T18:32:13;5.40;99.90
16867;DHT22;8550;52.596;13.320;2024-03-17T18:37:14;5.20;99.90
16867;DHT22;8550;52.596;13.320;2024-03-17T18:42:14;5.00;99.90
16867;DHT22;8550;52.596;13.320;2024-03-17T18:47:15;4.90;99.90
16867;DHT22;8550;52.596;13.320;2024-03-17T18:52:15;4.90;99.90
16867;DHT22;8550;52.596;13.320;2024-03-17T18:57:16;5.00;99.90
16867;DHT22;8550;52.596;13.320;2024-03-17T19:02:17;5.00;99.90
16867;DHT22;8550;52.596;13.320;2024-03-17T19:07:17;5.00;99.90
16867;DHT22;8550;52.596;13.320;2024-03-17T19:12:23;5.00;99.90
16867;DHT22;8550;52.596;13.320;2024-03-17T19:17:24;4.80;99.90
16867;DHT22;8550;52.596;13.320;2024-03-17T19:22:25;4.60;99.90
16867;DHT22;8550;52.596;13.320;2024-03-17T19:27:29;4.80;99.90
16867;DHT22;8550;52.596;13.320;2024-03-17T19:32:30;4.70;99.90
16867;DHT22;8550;52.596;13.320;2024-03-17T19:37:31;4.70;99.90
16867;DHT22;8550;52.596;13.320;2024-03-17T19:42:32;4.60;99.90
16867;DHT22;8550;52.596;13.320;2024-03-17T19:47:33;4.60;99.90
16867;DHT22;8550;52.596;13.320;2024-03-17T19:52:36;4.60;99.90
16867;DHT22;8550;52.596;13.320;2024-03-17T19:57:36;4.50;99.90
16867;DHT22;8550;52.596;13.320;2024-03-17T20:02:37;4.60;99.90
16867;DHT22;8550;52.596;13.320;2024-03-17T20:07:39;4.40;99.90
16867;DHT22;8550;52.596;13.320;2024-03-17T20:12:40;4.40;99.90
16867;DHT22;8550;52.596;13.320;2024-03-17T20:17:40;4.30;99.90
16867;DHT22;8550;52.596;13.320;2024-03-17T20:22:41;4.30;99.90
16867;DHT22;8550;52.596;13.320;2024-03-17T20:27:41;4.20;99.90
16867;DHT22;8550;52.596;13.320;2024-03-17T20:32:42;4.10;99.90
16867;DHT22;8550;52.596;13.320;2024-03-17T20:37:45;4.00;99.90
16867;DHT22;8550;52.596;13.320;2024-03-17T20:42:49;3.80;99.90
16867;DHT22;8550;52.596;13.320;2024-03-17T20:47:50;3.80;99.90
16867;DHT22;8550;52.596;13.320;2024-03-17T20:52:52;3.70;99.90
16867;DHT22;8550;52.596;13.320;2024-03-17T20:57:53;3.70;99.90
16867;DHT22;8550;52.596;13.320;2024-03-17T21:02:55;3.60;99.90
16867;DHT22;8550;52.596;13.320;2024-03-17T21:07:56;3.50;99.90
16867;DHT22;8550;52.596;13.320;2024-03-17T21:12:59;3.40;99.90
16867;DHT22;8550;52.596;13.320;2024-03-17T21:18:00;3.30;99.90
16867;DHT22;8550;52.596;13.320;2024-03-17T21:23:01;3.30;99.90
16867;DHT22;8550;52.596;13.320;2024-03-17T21:28:02;3.20;99.90
16867;DHT22;8550;52.596;13.320;2024-03-17T21:33:03;3.10;99.90
16867;DHT22;8550;52.596;13.320;2024-03-17T21:38:04;3.00;99.90
16867;DHT22;8550;52.596;13.320;2024-03-17T21:43:05;2.90;99.90
16867;DHT22;8550;52.596;13.320;2024-03-17T21:48:05;2.90;99.90
16867;DHT22;8550;52.596;13.320;2024-03-17T21:53:07;2.70;99.90
16867;DHT22;8550;52.596;13.320;2024-03-17T21:58:08;2.70;99.90
16867;DHT22;8550;52.596;13.320;2024-03-17T22:03:09;2.50;99.90
16867;DHT22;8550;52.596;13.320;2024-03-17T22:08:10;2.40;99.90
16867;DHT22;8550;52.596;13.320;2024-03-17T22:13:10;2.30;99.90
16867;DHT22;8550;52.596;13.320;2024-03-17T22:18:11;2.50;99.90
16867;DHT22;8550;52.596;13.320;2024-03-17T22:23:12;2.30;99.90
16867;DHT22;8550;52.596;13.320;2024-03-17T22:28:13;2.20;99.90
16867;DHT22;8550;52.596;13.320;2024-03-17T22:33:14;2.30;99.90
16867;DHT22;8550;52.596;13.320;2024-03-17T22:38:16;2.10;99.90
16867;DHT22;8550;52.596;13.320;2024-03-17T22:43:17;2.10;99.90
16867;DHT22;8550;52.596;13.320;2024-03-17T22:48:18;2.00;99.90
16867;DHT22;8550;52.596;13.320;2024-03-17T22:53:20;2.10;99.90
16867;DHT22;8550;52.596;13.320;2024-03-17T22:58:23;2.00;99.90
16867;DHT22;8550;52.596;13.320;2024-03-17T23:03:24;2.00;99.90
16867;DHT22;8550;52.596;13.320;2024-03-17T23:08:26;1.90;99.90
16867;DHT22;8550;52.596;13.320;2024-03-17T23:13:28;1.90;99.90
16867;DHT22;8550;52.596;13.320;2024-03-17T23:18:29;1.80;99.90
16867;DHT22;8550;52.596;13.320;2024-03-17T23:23:30;1.70;99.90
16867;DHT22;8550;52.596;13.320;2024-03-17T23:28:30;1.60;99.90
16867;DHT22;8550;52.596;13.320;2024-03-17T23:33:31;1.60;99.90
16867;DHT22;8550;52.596;13.320;2024-03-17T23:38:32;1.60;99.90
16867;DHT22;8550;52.596;13.320;2024-03-17T23:43:32;1.60;99.90
16867;DHT22;8550;52.596;13.320;2024-03-17T23:48:33;1.50;99.90
16867;DHT22;8550;52.596;13.320;2024-03-17T23:53:34;1.50;99.90
16867;DHT22;8550;52.596;13.320;2024-03-17T23:58:34;1.50;99.90
